Check out our new BloomSky Weather System.

Active alerts


No alerts


Thunder radar  blitzortung!


Rain radar more information rain snow radar


Visit our other weather sites:

Template documentation
and downloads

And another site



Weather Underground History page Text

Daily Summary for July 28, 2017 Units:  English    Metric   Both
« Previous Day
Next Day »
Daily Weekly Monthly Yearly Custom
  High: Low: Average:
Temperature: 99.7 °F 78.1 °F 88.9 °F
Dew Point: 80.6 °F 72.7 °F 77.3 °F
Humidity: 97 % 45 % 71 %
Wind Speed: 8.0 mph 0.0 mph 2.2 mph
Wind Gust: 12.0 mph - -
Wind:- - South
Pressure: 29.98 in 29.82 in -
Precipitation: 0.00 in    
Historical Graphs
 
 
Tabular Data for July 28, 2017
Time Temperature Dew Point Pressure Wind Wind Speed Wind Gust Humidity Rainfall Rate (Hourly)
00:02 83.7 °F 77.5 °F 29.94 in SSW 6.0 mph 8.0 mph 82 % 0.00 in
00:12 83.3 °F 77.5 °F 29.94 in South 2.0 mph 8.0 mph 83 % 0.00 in
00:17 83.1 °F 77.4 °F 29.94 in SSW 3.0 mph 8.0 mph 83 % 0.00 in
00:22 82.9 °F 77.5 °F 29.94 in SSW 5.0 mph 8.0 mph 84 % 0.00 in
00:27 82.9 °F 77.5 °F 29.94 in SSW 5.0 mph 11.0 mph 84 % 0.00 in
00:32 82.8 °F 77.4 °F 29.94 in SSW 3.0 mph 11.0 mph 84 % 0.00 in
00:37 82.8 °F 77.7 °F 29.94 in SSW 3.0 mph 11.0 mph 85 % 0.00 in
00:42 82.8 °F 77.7 °F 29.94 in SSW 3.0 mph 7.0 mph 85 % 0.00 in
00:47 82.6 °F 77.5 °F 29.94 in SSE 3.0 mph 7.0 mph 85 % 0.00 in
00:52 82.4 °F 77.7 °F 29.94 in SSE 3.0 mph 7.0 mph 86 % 0.00 in
00:57 82.2 °F 77.5 °F 29.94 in South 5.0 mph 7.0 mph 86 % 0.00 in
01:02 82.2 °F 77.5 °F 29.94 in South 1.0 mph 7.0 mph 86 % 0.00 in
01:07 82.0 °F 77.4 °F 29.94 in SSW 4.0 mph 7.0 mph 86 % 0.00 in
01:12 81.9 °F 77.5 °F 29.94 in Calm   7.0 mph 87 % 0.00 in
01:17 81.9 °F 77.5 °F 29.94 in SSW 2.0 mph 9.0 mph 87 % 0.00 in
01:22 81.9 °F 77.5 °F 29.94 in SSW 2.0 mph 9.0 mph 87 % 0.00 in
01:27 81.9 °F 77.5 °F 29.94 in SSW 3.0 mph 9.0 mph 87 % 0.00 in
01:39 81.7 °F 77.7 °F 29.94 in SW 3.0 mph 7.0 mph 88 % 0.00 in
01:44 81.7 °F 77.7 °F 29.94 in SSE 4.0 mph 8.0 mph 88 % 0.00 in
01:49 81.5 °F 77.5 °F 29.94 in SSW 1.0 mph 8.0 mph 88 % 0.00 in
01:54 81.3 °F 77.7 °F 29.94 in SSE 3.0 mph 8.0 mph 89 % 0.00 in
01:56 81.3 °F 77.7 °F 29.94 in South 4.0 mph 7.0 mph 89 % 0.00 in
02:01 81.3 °F 77.7 °F 29.94 in SSE 3.0 mph 8.0 mph 89 % 0.00 in
02:06 81.3 °F 77.7 °F 29.94 in SSE 3.0 mph 8.0 mph 89 % 0.00 in
02:11 81.1 °F 77.5 °F 29.94 in Calm   8.0 mph 89 % 0.00 in
02:16 81.1 °F 77.5 °F 29.94 in Calm   6.0 mph 89 % 0.00 in
02:21 81.0 °F 77.7 °F 29.94 in Calm   5.0 mph 90 % 0.00 in
02:26 80.8 °F 77.5 °F 29.94 in SSW 1.0 mph 4.0 mph 90 % 0.00 in
02:31 80.8 °F 77.5 °F 29.94 in SSW 1.0 mph 4.0 mph 90 % 0.00 in
02:36 80.8 °F 77.5 °F 29.94 in SSE 4.0 mph 4.0 mph 90 % 0.00 in
02:46 80.6 °F 77.4 °F 29.94 in Calm   6.0 mph 90 % 0.00 in
02:51 80.4 °F 77.2 °F 29.94 in SSW 2.0 mph 6.0 mph 90 % 0.00 in
02:56 80.4 °F 77.5 °F 29.93 in Calm   6.0 mph 91 % 0.00 in
03:01 80.4 °F 77.5 °F 29.94 in South 3.0 mph 6.0 mph 91 % 0.00 in
03:11 80.2 °F 77.4 °F 29.94 in South 1.0 mph 4.0 mph 91 % 0.00 in
03:16 80.2 °F 77.4 °F 29.93 in Calm   4.0 mph 91 % 0.00 in
03:21 80.1 °F 77.2 °F 29.93 in Calm   3.0 mph 91 % 0.00 in
03:26 79.9 °F 77.4 °F 29.94 in Calm   2.0 mph 92 % 0.00 in
03:31 79.9 °F 77.4 °F 29.94 in Calm   1.0 mph 92 % 0.00 in
03:36 79.9 °F 77.4 °F 29.94 in Calm   1.0 mph 92 % 0.00 in
03:41 79.5 °F 77.0 °F 29.94 in Calm   1.0 mph 92 % 0.00 in
03:46 79.5 °F 77.0 °F 29.94 in Calm   2.0 mph 92 % 0.00 in
03:51 79.5 °F 77.4 °F 29.94 in Calm   2.0 mph 93 % 0.00 in
03:56 79.5 °F 77.4 °F 29.94 in South 1.0 mph 2.0 mph 93 % 0.00 in
04:01 79.5 °F 77.4 °F 29.94 in SSE 1.0 mph 2.0 mph 93 % 0.00 in
04:06 79.5 °F 77.4 °F 29.94 in South 1.0 mph 2.0 mph 93 % 0.00 in
04:11 79.5 °F 77.4 °F 29.94 in Calm   2.0 mph 93 % 0.00 in
04:16 79.5 °F 77.4 °F 29.94 in Calm   2.0 mph 93 % 0.00 in
04:21 79.5 °F 77.4 °F 29.94 in Calm   1.0 mph 93 % 0.00 in
04:26 79.3 °F 77.2 °F 29.94 in Calm   1.0 mph 93 % 0.00 in
04:31 79.2 °F 77.0 °F 29.94 in Calm   1.0 mph 93 % 0.00 in
04:36 78.8 °F 76.6 °F 29.94 in Calm     93 % 0.00 in
04:41 78.8 °F 76.6 °F 29.94 in Calm     93 % 0.00 in
04:46 78.6 °F 76.8 °F 29.94 in South 1.0 mph   94 % 0.00 in
04:51 79.0 °F 77.2 °F 29.94 in SSW 2.0 mph 2.0 mph 94 % 0.00 in
04:56 79.0 °F 77.2 °F 29.94 in SSW 1.0 mph 2.0 mph 94 % 0.00 in
05:01 79.0 °F 77.2 °F 29.94 in SSW 1.0 mph 2.0 mph 94 % 0.00 in
05:06 79.0 °F 77.2 °F 29.94 in SSW 1.0 mph 2.0 mph 94 % 0.00 in
05:11 79.0 °F 77.2 °F 29.94 in Calm   2.0 mph 94 % 0.00 in
05:17 78.8 °F 77.0 °F 29.94 in SSE 1.0 mph 1.0 mph 94 % 0.00 in
05:22 78.6 °F 76.8 °F 29.94 in Calm   2.0 mph 94 % 0.00 in
05:27 78.6 °F 77.0 °F 29.94 in Calm   2.0 mph 95 % 0.00 in
05:32 78.6 °F 76.8 °F 29.95 in Calm   2.0 mph 94 % 0.00 in
05:37 78.4 °F 76.8 °F 29.95 in Calm   2.0 mph 95 % 0.00 in
05:42 78.3 °F 76.6 °F 29.95 in Calm   2.0 mph 95 % 0.00 in
05:47 78.3 °F 76.6 °F 29.95 in Calm     95 % 0.00 in
05:52 78.3 °F 76.6 °F 29.95 in Calm     95 % 0.00 in
05:57 78.3 °F 76.6 °F 29.95 in Calm   1.0 mph 95 % 0.00 in
06:02 78.3 °F 76.6 °F 29.95 in Calm   1.0 mph 95 % 0.00 in
06:07 78.1 °F 76.5 °F 29.95 in Calm   1.0 mph 95 % 0.00 in
06:12 78.1 °F 76.5 °F 29.95 in Calm   1.0 mph 95 % 0.00 in
06:17 78.1 °F 76.8 °F 29.96 in Calm     96 % 0.00 in
06:22 78.3 °F 77.0 °F 29.96 in Calm   1.0 mph 96 % 0.00 in
06:28 78.3 °F 77.0 °F 29.96 in SSE 1.0 mph 1.0 mph 96 % 0.00 in
06:33 78.3 °F 77.0 °F 29.96 in SSE 1.0 mph 2.0 mph 96 % 0.00 in
06:38 78.3 °F 77.0 °F 29.96 in Calm   2.0 mph 96 % 0.00 in
06:43 78.3 °F 77.0 °F 29.96 in Calm   2.0 mph 96 % 0.00 in
06:48 78.3 °F 77.0 °F 29.96 in Calm   1.0 mph 96 % 0.00 in
06:53 78.3 °F 77.0 °F 29.96 in Calm   1.0 mph 96 % 0.00 in
06:58 78.3 °F 77.0 °F 29.96 in Calm     96 % 0.00 in
07:03 78.3 °F 77.0 °F 29.96 in Calm     96 % 0.00 in
07:08 78.3 °F 77.0 °F 29.97 in Calm   1.0 mph 96 % 0.00 in
07:13 78.4 °F 77.2 °F 29.96 in Calm   1.0 mph 96 % 0.00 in
07:18 78.4 °F 77.2 °F 29.97 in Calm   1.0 mph 96 % 0.00 in
07:23 78.6 °F 77.4 °F 29.97 in Calm     96 % 0.00 in
07:28 79.2 °F 78.3 °F 29.97 in Calm     97 % 0.00 in
07:33 79.9 °F 78.6 °F 29.97 in SSW 1.0 mph   96 % 0.00 in
07:38 80.1 °F 78.8 °F 29.97 in Calm   2.0 mph 96 % 0.00 in
07:43 80.8 °F 79.5 °F 29.97 in Calm   2.0 mph 96 % 0.00 in
07:48 81.1 °F 79.5 °F 29.97 in Calm   2.0 mph 95 % 0.00 in
07:53 81.3 °F 79.3 °F 29.97 in Calm   3.0 mph 94 % 0.00 in
07:58 81.9 °F 79.7 °F 29.97 in SSW 1.0 mph 4.0 mph 93 % 0.00 in
08:04 82.2 °F 79.7 °F 29.97 in SSE 2.0 mph 4.0 mph 92 % 0.00 in
08:09 82.6 °F 79.7 °F 29.97 in Calm   4.0 mph 91 % 0.00 in
08:14 82.9 °F 80.1 °F 29.97 in WNW 3.0 mph 4.0 mph 91 % 0.00 in
08:19 83.3 °F 80.1 °F 29.97 in SSW 3.0 mph 5.0 mph 90 % 0.00 in
08:24 83.7 °F 80.1 °F 29.97 in SSW 4.0 mph 5.0 mph 89 % 0.00 in
08:29 83.8 °F 79.9 °F 29.97 in South 3.0 mph 7.0 mph 88 % 0.00 in
08:34 84.0 °F 79.7 °F 29.97 in SSW 1.0 mph 7.0 mph 87 % 0.00 in
08:39 84.6 °F 79.9 °F 29.97 in Calm   8.0 mph 86 % 0.00 in
08:40 84.6 °F 79.9 °F 29.97 in SSE 2.0 mph 8.0 mph 86 % 0.00 in
08:45 85.3 °F 80.2 °F 29.97 in SW 5.0 mph 8.0 mph 85 % 0.00 in
08:50 85.6 °F 80.6 °F 29.98 in SSW 2.0 mph 7.0 mph 85 % 0.00 in
08:55 86.2 °F 80.4 °F 29.98 in SW 1.0 mph 7.0 mph 83 % 0.00 in
09:00 86.7 °F 80.6 °F 29.98 in SSW 2.0 mph 6.0 mph 82 % 0.00 in
09:05 86.7 °F 79.9 °F 29.98 in SSE 3.0 mph 9.0 mph 80 % 0.00 in
09:10 86.7 °F 79.3 °F 29.98 in SSE 2.0 mph 9.0 mph 79 % 0.00 in
09:15 87.1 °F 79.7 °F 29.98 in WNW 2.0 mph 9.0 mph 79 % 0.00 in
09:25 87.6 °F 79.2 °F 29.98 in SSE 1.0 mph 9.0 mph 76 % 0.00 in
09:30 88.2 °F 79.7 °F 29.98 in SSW 7.0 mph 9.0 mph 76 % 0.00 in
09:35 88.2 °F 79.7 °F 29.98 in SSW 5.0 mph 9.0 mph 76 % 0.00 in
09:40 88.5 °F 79.2 °F 29.98 in SSW 3.0 mph 9.0 mph 74 % 0.00 in
09:45 89.1 °F 79.7 °F 29.98 in NW 3.0 mph 9.0 mph 74 % 0.00 in
09:50 89.6 °F 79.3 °F 29.98 in West 2.0 mph 9.0 mph 72 % 0.00 in
09:55 90.0 °F 79.3 °F 29.97 in SW 1.0 mph 7.0 mph 71 % 0.00 in
10:00 90.0 °F 79.3 °F 29.97 in SSE 3.0 mph 10.0 mph 71 % 0.00 in
10:05 89.8 °F 79.9 °F 29.97 in WNW 1.0 mph 10.0 mph 73 % 0.00 in
10:10 90.0 °F 78.4 °F 29.97 in SW 1.0 mph 10.0 mph 69 % 0.00 in
10:15 90.1 °F 78.6 °F 29.97 in SSE 2.0 mph 9.0 mph 69 % 0.00 in
10:25 90.9 °F 79.3 °F 29.97 in SSW 5.0 mph 8.0 mph 69 % 0.00 in
10:30 91.0 °F 79.0 °F 29.97 in SW 1.0 mph 8.0 mph 68 % 0.00 in
10:35 91.6 °F 78.1 °F 29.96 in SSW 4.0 mph 8.0 mph 65 % 0.00 in
10:40 91.6 °F 78.1 °F 29.96 in South 4.0 mph 8.0 mph 65 % 0.00 in
10:45 91.6 °F 78.1 °F 29.96 in South 2.0 mph 10.0 mph 65 % 0.00 in
10:50 91.8 °F 79.2 °F 29.96 in SSW 4.0 mph 10.0 mph 67 % 0.00 in
10:55 92.1 °F 78.6 °F 29.96 in SSW 3.0 mph 10.0 mph 65 % 0.00 in
11:00 92.5 °F 79.0 °F 29.96 in West 3.0 mph 9.0 mph 65 % 0.00 in
11:05 92.3 °F 78.3 °F 29.96 in SSE 2.0 mph 7.0 mph 64 % 0.00 in
11:10 92.7 °F 79.2 °F 29.96 in North 3.0 mph 7.0 mph 65 % 0.00 in
11:15 92.8 °F 78.8 °F 29.96 in SW 5.0 mph 7.0 mph 64 % 0.00 in
11:20 92.5 °F 77.5 °F 29.96 in SSW 2.0 mph 10.0 mph 62 % 0.00 in
11:25 92.8 °F 77.9 °F 29.96 in North 4.0 mph 10.0 mph 62 % 0.00 in
11:30 93.0 °F 78.1 °F 29.96 in WSW 2.0 mph 10.0 mph 62 % 0.00 in
11:35 93.7 °F 77.7 °F 29.96 in SSW 1.0 mph 9.0 mph 60 % 0.00 in
11:40 93.7 °F 78.3 °F 29.96 in SW 3.0 mph 7.0 mph 61 % 0.00 in
11:41 93.7 °F 77.7 °F 29.96 in SSW 4.0 mph 7.0 mph 60 % 0.00 in
11:46 93.9 °F 79.0 °F 29.96 in WSW 4.0 mph 7.0 mph 62 % 0.00 in
11:47 93.9 °F 79.0 °F 29.96 in SW 1.0 mph 7.0 mph 62 % 0.00 in
11:52 93.9 °F 77.4 °F 29.95 in NW 3.0 mph 7.0 mph 59 % 0.00 in
11:57 94.3 °F 78.3 °F 29.95 in South 7.0 mph 7.0 mph 60 % 0.00 in
12:02 94.3 °F 77.7 °F 29.95 in SSW 1.0 mph 9.0 mph 59 % 0.00 in
12:07 93.9 °F 78.4 °F 29.95 in Calm   9.0 mph 61 % 0.00 in
12:12 94.3 °F 77.7 °F 29.94 in SW 2.0 mph 9.0 mph 59 % 0.00 in
12:17 94.5 °F 78.4 °F 29.94 in West 2.0 mph 8.0 mph 60 % 0.00 in
12:22 94.8 °F 78.3 °F 29.94 in SW 1.0 mph 6.0 mph 59 % 0.00 in
12:25 95.4 °F 79.3 °F 29.94 in WSW 1.0 mph 7.0 mph 60 % 0.00 in
12:30 95.5 °F 77.9 °F 29.94 in WSW 2.0 mph 7.0 mph 57 % 0.00 in
12:35 95.7 °F 77.5 °F 29.94 in SW 2.0 mph 7.0 mph 56 % 0.00 in
12:40 96.1 °F 77.9 °F 29.94 in South 6.0 mph 10.0 mph 56 % 0.00 in
12:45 95.7 °F 77.5 °F 29.94 in SSE 4.0 mph 10.0 mph 56 % 0.00 in
12:50 95.9 °F 77.2 °F 29.93 in SSE 4.0 mph 10.0 mph 55 % 0.00 in
12:55 95.9 °F 78.8 °F 29.93 in NNW 2.0 mph 9.0 mph 58 % 0.00 in
13:00 96.3 °F 79.5 °F 29.93 in WSW 2.0 mph 9.0 mph 59 % 0.00 in
13:05 96.8 °F 76.3 °F 29.93 in SW 1.0 mph 9.0 mph 52 % 0.00 in
13:10 96.6 °F 77.2 °F 29.92 in SSW 2.0 mph 7.0 mph 54 % 0.00 in
13:15 97.2 °F 77.7 °F 29.92 in West 1.0 mph 7.0 mph 54 % 0.00 in
13:20 97.0 °F 78.1 °F 29.93 in SSW 2.0 mph 7.0 mph 55 % 0.00 in
13:25 97.2 °F 77.7 °F 29.92 in South 1.0 mph 7.0 mph 54 % 0.00 in
13:30 97.2 °F 76.6 °F 29.92 in SW 4.0 mph 9.0 mph 52 % 0.00 in
13:36 97.5 °F 78.1 °F 29.92 in SSE 1.0 mph 9.0 mph 54 % 0.00 in
13:41 98.1 °F 77.4 °F 29.92 in SSW 1.0 mph 9.0 mph 52 % 0.00 in
13:46 98.1 °F 78.1 °F 29.91 in NW 1.0 mph 6.0 mph 53 % 0.00 in
13:51 97.5 °F 76.3 °F 29.91 in SE 2.0 mph 6.0 mph 51 % 0.00 in
13:56 97.2 °F 77.2 °F 29.91 in NW 1.0 mph 5.0 mph 53 % 0.00 in
14:01 97.0 °F 77.0 °F 29.91 in SSW 1.0 mph 5.0 mph 53 % 0.00 in
14:06 97.0 °F 75.9 °F 29.91 in West 1.0 mph 5.0 mph 51 % 0.00 in
14:11 96.4 °F 77.0 °F 29.90 in Calm   10.0 mph 54 % 0.00 in
14:16 96.4 °F 77.0 °F 29.90 in South 1.0 mph 10.0 mph 54 % 0.00 in
14:21 97.2 °F 76.6 °F 29.90 in SSW 3.0 mph 10.0 mph 52 % 0.00 in
14:26 97.9 °F 77.9 °F 29.90 in WSW 2.0 mph 6.0 mph 53 % 0.00 in
14:31 97.9 °F 77.9 °F 29.89 in South 4.0 mph 6.0 mph 53 % 0.00 in
14:36 97.9 °F 76.6 °F 29.89 in SSW 4.0 mph 6.0 mph 51 % 0.00 in
14:41 97.9 °F 76.6 °F 29.89 in SSW 4.0 mph 8.0 mph 51 % 0.00 in
14:46 97.9 °F 75.4 °F 29.89 in SE 3.0 mph 8.0 mph 49 % 0.00 in
14:51 97.9 °F 75.4 °F 29.88 in South 1.0 mph 8.0 mph 49 % 0.00 in
14:56 98.1 °F 78.1 °F 29.88 in SSW 4.0 mph 6.0 mph 53 % 0.00 in
15:01 98.1 °F 75.0 °F 29.88 in SE 4.0 mph 9.0 mph 48 % 0.00 in
15:06 98.2 °F 77.5 °F 29.88 in WSW 2.0 mph 9.0 mph 52 % 0.00 in
15:11 98.2 °F 76.5 °F 29.88 in WSW 2.0 mph 9.0 mph 50 % 0.00 in
15:16 98.6 °F 75.6 °F 29.88 in SSW 3.0 mph 8.0 mph 48 % 0.00 in
15:21 98.8 °F 76.3 °F 29.88 in SSW 1.0 mph 8.0 mph 49 % 0.00 in
15:26 99.1 °F 75.9 °F 29.87 in South 4.0 mph 8.0 mph 48 % 0.00 in
15:31 99.0 °F 75.7 °F 29.87 in SSE 2.0 mph 7.0 mph 48 % 0.00 in
15:36 98.8 °F 75.7 °F 29.87 in Calm   5.0 mph 48 % 0.00 in
15:41 99.1 °F 75.9 °F 29.87 in SE 5.0 mph 5.0 mph 48 % 0.00 in
15:46 98.4 °F 75.4 °F 29.87 in SSE 4.0 mph 8.0 mph 48 % 0.00 in
15:51 97.5 °F 75.2 °F 29.87 in ESE 5.0 mph 8.0 mph 49 % 0.00 in
15:56 97.7 °F 76.5 °F 29.87 in NW 6.0 mph 8.0 mph 51 % 0.00 in
16:01 98.1 °F 75.6 °F 29.86 in ESE 2.0 mph 9.0 mph 49 % 0.00 in
16:06 98.1 °F 75.6 °F 29.86 in SW 3.0 mph 9.0 mph 49 % 0.00 in
16:11 98.4 °F 76.6 °F 29.86 in SSW 3.0 mph 9.0 mph 50 % 0.00 in
16:16 98.4 °F 75.4 °F 29.86 in SSW 3.0 mph 6.0 mph 48 % 0.00 in
16:21 98.2 °F 74.5 °F 29.86 in SE 2.0 mph 5.0 mph 47 % 0.00 in
16:26 98.2 °F 76.5 °F 29.86 in SSE 4.0 mph 6.0 mph 50 % 0.00 in
16:31 98.4 °F 75.4 °F 29.86 in ESE 1.0 mph 6.0 mph 48 % 0.00 in
16:36 99.0 °F 75.7 °F 29.86 in ENE 1.0 mph 6.0 mph 48 % 0.00 in
16:41 99.1 °F 75.4 °F 29.86 in SW 3.0 mph 6.0 mph 47 % 0.00 in
16:46 99.0 °F 75.7 °F 29.86 in Calm   5.0 mph 48 % 0.00 in
16:51 99.0 °F 75.2 °F 29.86 in East 6.0 mph 6.0 mph 47 % 0.00 in
16:56 98.8 °F 75.7 °F 29.85 in SSE 1.0 mph 8.0 mph 48 % 0.00 in
17:01 99.0 °F 75.7 °F 29.85 in SSW 1.0 mph 8.0 mph 48 % 0.00 in
17:06 99.3 °F 74.8 °F 29.85 in SSE 3.0 mph 8.0 mph 46 % 0.00 in
17:11 99.1 °F 74.7 °F 29.85 in SSW 3.0 mph 6.0 mph 46 % 0.00 in
17:16 99.5 °F 75.0 °F 29.85 in Calm   5.0 mph 46 % 0.00 in
17:21 99.7 °F 75.2 °F 29.84 in SE 1.0 mph 6.0 mph 46 % 0.00 in
17:27 99.3 °F 75.6 °F 29.84 in South 4.0 mph 6.0 mph 47 % 0.00 in
17:32 99.3 °F 75.6 °F 29.84 in East 8.0 mph 8.0 mph 47 % 0.00 in
17:37 99.3 °F 74.3 °F 29.84 in SE 3.0 mph 9.0 mph 45 % 0.00 in
17:42 99.0 °F 74.5 °F 29.84 in SSW 3.0 mph 9.0 mph 46 % 0.00 in
17:47 98.8 °F 74.3 °F 29.84 in South 1.0 mph 9.0 mph 46 % 0.00 in
17:52 98.8 °F 75.0 °F 29.84 in SSE 5.0 mph 6.0 mph 47 % 0.00 in
17:57 98.4 °F 74.7 °F 29.83 in SE 2.0 mph 7.0 mph 47 % 0.00 in
18:02 98.6 °F 74.8 °F 29.83 in South 3.0 mph 7.0 mph 47 % 0.00 in
18:07 98.6 °F 75.6 °F 29.83 in SSE 4.0 mph 7.0 mph 48 % 0.00 in
18:12 98.4 °F 74.7 °F 29.83 in SSW 3.0 mph 6.0 mph 47 % 0.00 in
18:17 98.2 °F 75.2 °F 29.83 in SE 3.0 mph 6.0 mph 48 % 0.00 in
18:22 98.2 °F 75.2 °F 29.83 in SSE 2.0 mph 5.0 mph 48 % 0.00 in
18:27 98.1 °F 74.3 °F 29.83 in South 3.0 mph 5.0 mph 47 % 0.00 in
18:32 98.1 °F 75.0 °F 29.83 in SE 3.0 mph 5.0 mph 48 % 0.00 in
18:37 97.9 °F 74.3 °F 29.83 in South 3.0 mph 5.0 mph 47 % 0.00 in
18:42 97.7 °F 74.1 °F 29.83 in South 3.0 mph 5.0 mph 47 % 0.00 in
18:47 97.5 °F 73.9 °F 29.83 in East 2.0 mph 6.0 mph 47 % 0.00 in
18:52 97.3 °F 73.8 °F 29.83 in ESE 1.0 mph 6.0 mph 47 % 0.00 in
18:57 97.7 °F 73.4 °F 29.82 in SE 3.0 mph 6.0 mph 46 % 0.00 in
19:02 97.7 °F 73.4 °F 29.82 in SSE 4.0 mph 4.0 mph 46 % 0.00 in
19:07 97.5 °F 73.2 °F 29.82 in SE 1.0 mph 4.0 mph 46 % 0.00 in
19:12 97.5 °F 73.9 °F 29.83 in SSE 1.0 mph 4.0 mph 47 % 0.00 in
19:17 97.3 °F 73.8 °F 29.83 in SSE 3.0 mph 4.0 mph 47 % 0.00 in
19:22 97.2 °F 72.9 °F 29.82 in SSW 3.0 mph 4.0 mph 46 % 0.00 in
19:32 96.3 °F 72.7 °F 29.82 in East 1.0 mph 4.0 mph 47 % 0.00 in
19:37 96.1 °F 73.2 °F 29.82 in Calm   4.0 mph 48 % 0.00 in
19:42 95.9 °F 73.6 °F 29.82 in Calm   3.0 mph 49 % 0.00 in
19:47 95.5 °F 72.7 °F 29.82 in ESE 3.0 mph 4.0 mph 48 % 0.00 in
19:52 95.4 °F 73.2 °F 29.82 in Calm   4.0 mph 49 % 0.00 in
19:57 95.2 °F 73.0 °F 29.83 in SE 1.0 mph 4.0 mph 49 % 0.00 in
20:02 95.0 °F 73.4 °F 29.83 in ESE 2.0 mph 3.0 mph 50 % 0.00 in
20:07 94.6 °F 77.0 °F 29.83 in SSE 5.0 mph 5.0 mph 57 % 0.00 in
20:12 93.7 °F 78.8 °F 29.83 in SSE 2.0 mph 8.0 mph 62 % 0.00 in
20:17 93.0 °F 79.5 °F 29.83 in East 3.0 mph 8.0 mph 65 % 0.00 in
20:22 92.5 °F 79.9 °F 29.83 in East 3.0 mph 8.0 mph 67 % 0.00 in
20:38 91.6 °F 79.5 °F 29.83 in East 6.0 mph 8.0 mph 68 % 0.00 in
20:43 91.0 °F 79.5 °F 29.84 in South 4.0 mph 9.0 mph 69 % 0.00 in
20:48 90.9 °F 79.7 °F 29.84 in SE 3.0 mph 9.0 mph 70 % 0.00 in
20:53 90.9 °F 79.7 °F 29.84 in SE 3.0 mph 6.0 mph 70 % 0.00 in
20:58 90.7 °F 80.1 °F 29.84 in SSE 1.0 mph 6.0 mph 71 % 0.00 in
21:03 90.7 °F 80.1 °F 29.84 in SSE 5.0 mph 10.0 mph 71 % 0.00 in
21:08 90.7 °F 80.1 °F 29.84 in SE 5.0 mph 10.0 mph 71 % 0.00 in
21:13 90.5 °F 79.9 °F 29.84 in SSE 7.0 mph 10.0 mph 71 % 0.00 in
21:18 90.1 °F 79.9 °F 29.84 in South 7.0 mph 10.0 mph 72 % 0.00 in
21:23 90.0 °F 79.7 °F 29.85 in SSE 6.0 mph 10.0 mph 72 % 0.00 in
21:33 89.4 °F 79.2 °F 29.85 in SSE 6.0 mph 12.0 mph 72 % 0.00 in
21:38 89.2 °F 79.5 °F 29.86 in SSE 4.0 mph 12.0 mph 73 % 0.00 in
21:43 88.9 °F 79.2 °F 29.86 in SSE 5.0 mph 11.0 mph 73 % 0.00 in
21:48 88.9 °F 79.2 °F 29.86 in SSE 2.0 mph 11.0 mph 73 % 0.00 in
21:53 88.5 °F 79.2 °F 29.87 in SSW 3.0 mph 9.0 mph 74 % 0.00 in
21:58 88.3 °F 79.0 °F 29.87 in SSW 5.0 mph 8.0 mph 74 % 0.00 in
22:03 88.2 °F 78.8 °F 29.87 in SSW 3.0 mph 8.0 mph 74 % 0.00 in
22:08 88.0 °F 78.6 °F 29.87 in SSE 1.0 mph 8.0 mph 74 % 0.00 in
22:13 87.6 °F 77.9 °F 29.88 in SSE 5.0 mph 8.0 mph 73 % 0.00 in
22:18 87.4 °F 77.7 °F 29.88 in South 3.0 mph 8.0 mph 73 % 0.00 in
22:23 87.3 °F 77.5 °F 29.88 in South 2.0 mph 8.0 mph 73 % 0.00 in
22:29 86.9 °F 77.2 °F 29.87 in SE 4.0 mph 8.0 mph 73 % 0.00 in
22:34 86.7 °F 77.0 °F 29.87 in South 2.0 mph 8.0 mph 73 % 0.00 in
22:36 86.5 °F 76.8 °F 29.87 in SSE 2.0 mph 7.0 mph 73 % 0.00 in
22:41 86.4 °F 77.0 °F 29.88 in SSE 5.0 mph 7.0 mph 74 % 0.00 in
22:46 86.2 °F 77.0 °F 29.88 in SSE 1.0 mph 9.0 mph 74 % 0.00 in
22:51 86.2 °F 77.4 °F 29.88 in SSE 3.0 mph 9.0 mph 75 % 0.00 in
22:56 85.8 °F 77.4 °F 29.88 in SSW 3.0 mph 9.0 mph 76 % 0.00 in
23:01 85.6 °F 77.2 °F 29.88 in SSE 4.0 mph 9.0 mph 76 % 0.00 in
23:06 85.6 °F 77.5 °F 29.88 in South 5.0 mph 7.0 mph 77 % 0.00 in
23:11 85.5 °F 77.7 °F 29.88 in SSW 4.0 mph 9.0 mph 78 % 0.00 in
23:16 85.3 °F 77.7 °F 29.88 in SSW 5.0 mph 9.0 mph 78 % 0.00 in
23:21 85.1 °F 77.9 °F 29.88 in South 4.0 mph 9.0 mph 79 % 0.00 in
23:26 84.9 °F 77.7 °F 29.88 in SSE 4.0 mph 7.0 mph 79 % 0.00 in
23:31 84.7 °F 77.9 °F 29.88 in SSW 4.0 mph 8.0 mph 80 % 0.00 in
23:36 84.7 °F 77.9 °F 29.88 in SSW 1.0 mph 8.0 mph 80 % 0.00 in
23:41 84.6 °F 77.7 °F 29.88 in SW 3.0 mph 8.0 mph 80 % 0.00 in
23:46 84.4 °F 77.5 °F 29.88 in SSW 1.0 mph 8.0 mph 80 % 0.00 in
23:51 84.2 °F 77.4 °F 29.88 in SE 4.0 mph 8.0 mph 80 % 0.00 in
23:56 84.0 °F 77.2 °F 29.88 in SSW 5.0 mph 8.0 mph 80 % 0.00 in
23:57 84.0 °F 77.2 °F 29.88 in South 7.0 mph 8.0 mph 80 % 0.00 in
Spring, Texas: Villages of Bridgestone
Compliments of Weather Underground - 2.75 mb

Script developed by  Jim McMurry - jmcmurry@mwt.net Adapted for the template by  Wim van der Kuil - Leuven-Template.eu

You find our weather info also at:

UK Metoffice

WeatherCloud

Weather Underground

Mid-South Weather Network

AWEKAS

Citizen Weather Observer Program (CWOP)

HAMweather, WeatherForYou, PWS Weather

Equipment we use:

Weather-station
Davis Vantage Vue

Weather-program
Meteohub

Weather-server
Debian 7.9 x86 (Guest)

Provider
DreamHost

Davis Vantage Vue

Meteohub

Debian 7.9 x86 (Guest)

DreamHost